createdAt,value
2023-04-11T00:01:23.219Z,3.70
2023-04-11T00:07:03.297Z,3.10
2023-04-11T00:09:49.974Z,3.50
2023-04-11T00:12:37.123Z,3.40
2023-04-11T00:15:27.016Z,3.40
2023-04-11T00:18:14.233Z,3.00
2023-04-11T00:21:01.240Z,3.10
2023-04-11T00:23:47.952Z,3.50
2023-04-11T00:26:34.886Z,2.90
2023-04-11T00:29:21.889Z,3.00
2023-04-11T00:32:08.923Z,2.90
2023-04-11T00:34:55.915Z,3.60
2023-04-11T00:37:44.771Z,3.50
2023-04-11T00:40:31.888Z,3.20
2023-04-11T00:43:18.496Z,3.60
2023-04-11T00:46:06.567Z,3.10
2023-04-11T00:48:54.274Z,3.30
2023-04-11T00:51:41.497Z,3.00
2023-04-11T00:54:30.454Z,2.90
2023-04-11T00:57:19.401Z,2.90
2023-04-11T01:00:10.248Z,3.00
2023-04-11T01:02:57.637Z,3.10
2023-04-11T01:05:46.107Z,2.90
2023-04-11T01:08:35.188Z,3.00
2023-04-11T01:11:22.788Z,2.70
2023-04-11T01:14:09.917Z,3.50
2023-04-11T01:16:58.055Z,2.90
2023-04-11T01:19:45.168Z,3.10
2023-04-11T01:22:32.907Z,3.10
2023-04-11T01:25:24.325Z,2.90
2023-04-11T01:28:11.135Z,2.80
2023-04-11T01:30:59.266Z,3.20
2023-04-11T01:33:47.121Z,3.00
2023-04-11T01:36:34.331Z,3.40
2023-04-11T01:39:21.456Z,3.10
2023-04-11T01:42:09.786Z,3.10
2023-04-11T01:44:56.916Z,2.90
2023-04-11T01:47:45.020Z,2.80
2023-04-11T01:50:31.960Z,2.70
2023-04-11T01:53:18.780Z,2.80
2023-04-11T01:56:06.434Z,2.30
2023-04-11T01:58:53.506Z,2.50
2023-04-11T02:01:44.654Z,2.40
2023-04-11T02:04:31.650Z,2.70
2023-04-11T02:07:18.362Z,2.70
2023-04-11T02:10:08.863Z,2.70
2023-04-11T02:12:55.770Z,2.50
2023-04-11T02:15:42.511Z,2.30
2023-04-11T02:18:29.709Z,2.80
2023-04-11T02:21:16.518Z,2.50
2023-04-11T02:24:03.780Z,2.40
2023-04-11T02:26:50.758Z,2.40
2023-04-11T02:29:37.872Z,2.50
2023-04-11T02:32:24.812Z,2.50
2023-04-11T02:35:11.599Z,2.70
2023-04-11T02:38:00.710Z,2.60
2023-04-11T02:40:48.190Z,2.40
2023-04-11T02:43:35.306Z,2.40
2023-04-11T02:46:23.196Z,2.20
2023-04-11T02:49:10.450Z,2.30
2023-04-11T02:51:57.896Z,2.20
2023-04-11T02:54:46.240Z,2.40
2023-04-11T02:57:33.354Z,2.40
2023-04-11T03:00:21.602Z,2.20
2023-04-11T03:03:12.604Z,2.20
2023-04-11T03:06:02.592Z,2.50
2023-04-11T03:08:50.535Z,2.30
2023-04-11T03:11:37.757Z,2.40
2023-04-11T03:14:25.177Z,2.20
2023-04-11T03:17:12.191Z,2.20
2023-04-11T03:19:58.802Z,2.60
2023-04-11T03:22:46.846Z,2.50
2023-04-11T03:25:33.857Z,2.20
2023-04-11T03:28:23.306Z,2.30
2023-04-11T03:31:11.971Z,2.30
2023-04-11T03:33:59.918Z,2.40
2023-04-11T03:36:47.044Z,2.50
2023-04-11T03:39:34.371Z,2.30
2023-04-11T03:42:22.513Z,2.40
2023-04-11T03:45:13.659Z,2.10
2023-04-11T03:48:00.578Z,2.70
2023-04-11T03:50:53.185Z,2.40
2023-04-11T03:53:43.651Z,2.50
2023-04-11T03:56:42.788Z,2.90
2023-04-11T03:59:36.348Z,2.70
2023-04-11T04:02:27.533Z,3.20
2023-04-11T04:05:15.187Z,3.20
2023-04-11T04:08:02.640Z,2.70
2023-04-11T04:11:02.022Z,2.50
2023-04-11T04:13:51.096Z,2.40
2023-04-11T04:16:38.259Z,2.50
2023-04-11T04:19:25.852Z,2.30
2023-04-11T04:22:13.330Z,2.40
2023-04-11T04:25:03.532Z,2.20
2023-04-11T04:27:54.308Z,2.60
2023-04-11T04:30:42.320Z,2.40
2023-04-11T04:33:33.239Z,2.50
2023-04-11T04:36:22.166Z,3.10
2023-04-11T04:39:10.814Z,3.50
2023-04-11T04:42:00.206Z,4.30
2023-04-11T04:44:53.301Z,4.20
2023-04-11T04:47:40.915Z,4.00
2023-04-11T04:50:28.029Z,4.10
2023-04-11T04:53:15.418Z,4.00
2023-04-11T04:56:07.353Z,4.30
2023-04-11T04:58:58.364Z,3.70
2023-04-11T05:01:45.796Z,3.40
2023-04-11T05:04:34.383Z,3.60
2023-04-11T05:07:23.703Z,3.70
2023-04-11T05:10:11.865Z,2.70
2023-04-11T05:12:59.898Z,3.10
2023-04-11T05:15:51.372Z,3.40
2023-04-11T05:18:38.738Z,3.40
2023-04-11T05:21:26.987Z,3.60
2023-04-11T05:24:14.217Z,3.10
2023-04-11T05:27:01.319Z,3.70
2023-04-11T05:29:48.346Z,3.90
2023-04-11T05:32:36.304Z,3.90
2023-04-11T05:35:23.295Z,4.00
2023-04-11T05:38:14.302Z,4.20
2023-04-11T05:41:01.219Z,3.70
2023-04-11T05:43:47.926Z,4.00
2023-04-11T05:49:30.062Z,4.00
2023-04-11T05:52:17.162Z,4.00
2023-04-11T05:55:06.096Z,3.60
2023-04-11T05:57:53.158Z,3.70
2023-04-11T06:00:40.358Z,4.00
2023-04-11T06:03:27.762Z,3.50
2023-04-11T06:06:15.214Z,3.60
2023-04-11T06:09:02.293Z,3.50
2023-04-11T06:11:49.250Z,3.90
2023-04-11T06:14:38.107Z,3.50
2023-04-11T06:17:26.304Z,4.00
2023-04-11T06:20:13.770Z,4.20
2023-04-11T06:23:01.608Z,3.40
2023-04-11T06:25:48.217Z,4.20
2023-04-11T06:28:35.027Z,3.80
2023-04-11T06:31:21.850Z,3.60
2023-04-11T06:34:09.183Z,3.50
2023-04-11T06:36:56.479Z,3.80
2023-04-11T06:39:43.767Z,3.60
2023-04-11T06:42:31.235Z,3.50
2023-04-11T06:45:18.751Z,3.80
2023-04-11T06:48:05.980Z,3.70
2023-04-11T06:50:52.915Z,3.60
2023-04-11T06:53:39.604Z,3.40
2023-04-11T06:58:50.807Z,3.80
2023-04-11T07:01:39.867Z,3.20
2023-04-11T07:04:26.945Z,4.00
2023-04-11T07:10:07.271Z,3.10
2023-04-11T07:12:54.591Z,3.30
2023-04-11T07:15:41.721Z,3.30
2023-04-11T07:18:28.726Z,3.30
2023-04-11T07:21:16.247Z,3.60
2023-04-11T07:24:04.198Z,3.80
2023-04-11T07:26:52.054Z,3.20
2023-04-11T07:32:31.094Z,3.10
2023-04-11T07:35:17.677Z,3.50
2023-04-11T07:38:04.793Z,3.60
2023-04-11T07:40:51.537Z,3.40
2023-04-11T07:43:38.827Z,3.60
2023-04-11T07:46:26.074Z,3.40
2023-04-11T07:49:12.960Z,3.60
2023-04-11T07:51:59.574Z,3.50
2023-04-11T07:54:46.534Z,3.70
2023-04-11T07:57:33.605Z,3.60
2023-04-11T08:00:23.212Z,3.90
2023-04-11T08:03:13.549Z,3.70
2023-04-11T08:06:00.589Z,4.80
2023-04-11T08:08:48.934Z,5.10
2023-04-11T08:11:39.559Z,4.20
2023-04-11T08:14:26.233Z,4.30
2023-04-11T08:17:27.170Z,4.40
2023-04-11T08:20:15.433Z,4.60
2023-04-11T08:23:06.438Z,4.30
2023-04-11T08:25:53.145Z,4.60
2023-04-11T08:28:42.393Z,4.30
2023-04-11T08:31:30.058Z,4.20
2023-04-11T08:34:17.171Z,4.30
2023-04-11T08:37:04.780Z,4.40
2023-04-11T08:39:51.719Z,4.80
2023-04-11T08:42:38.540Z,4.20
2023-04-11T08:45:25.331Z,4.40
2023-04-11T08:48:12.653Z,4.00
2023-04-11T08:50:59.883Z,4.10
2023-04-11T08:53:46.687Z,5.00
2023-04-11T08:56:35.404Z,4.20
2023-04-11T08:59:22.565Z,3.90
2023-04-11T09:02:09.837Z,4.20
2023-04-11T09:04:57.847Z,4.10
2023-04-11T09:07:50.879Z,4.50
2023-04-11T09:10:40.043Z,3.90
2023-04-11T09:13:28.537Z,3.40
2023-04-11T09:16:16.619Z,4.30
2023-04-11T09:19:03.854Z,4.10
2023-04-11T09:21:50.806Z,3.90
2023-04-11T09:24:38.307Z,3.70
2023-04-11T09:27:26.425Z,4.20
2023-04-11T09:30:26.840Z,3.90
2023-04-11T09:33:28.623Z,3.90
2023-04-11T09:36:23.856Z,3.70
2023-04-11T09:39:18.866Z,3.60
2023-04-11T09:42:25.565Z,3.80
2023-04-11T09:45:21.107Z,3.90
2023-04-11T09:48:08.940Z,3.90
2023-04-11T09:50:58.799Z,3.90
2023-04-11T09:53:46.420Z,4.00
2023-04-11T09:56:34.883Z,3.80
2023-04-11T09:59:23.090Z,3.70
2023-04-11T10:02:10.086Z,3.60
2023-04-11T10:04:59.912Z,3.80
2023-04-11T10:07:58.920Z,3.90
2023-04-11T10:10:46.198Z,3.90
2023-04-11T10:13:35.579Z,3.80
2023-04-11T10:16:24.393Z,3.70
2023-04-11T10:19:17.581Z,4.20
2023-04-11T10:22:04.505Z,3.80
2023-04-11T10:25:20.505Z,4.20
2023-04-11T10:28:07.722Z,4.50
2023-04-11T10:31:10.203Z,3.80
2023-04-11T10:34:16.952Z,4.10
2023-04-11T10:37:10.954Z,3.80
2023-04-11T10:40:01.446Z,3.70
2023-04-11T10:42:51.667Z,4.00
2023-04-11T10:45:42.824Z,3.50
2023-04-11T10:48:52.407Z,3.90
2023-04-11T10:51:42.494Z,3.90
2023-04-11T10:54:32.478Z,3.90
2023-04-11T10:57:23.241Z,3.60
2023-04-11T11:00:15.917Z,3.90
2023-04-11T11:03:05.064Z,3.80
2023-04-11T11:06:03.084Z,3.70
2023-04-11T11:08:49.834Z,3.80
2023-04-11T11:11:37.054Z,3.40
2023-04-11T11:14:32.829Z,3.50
2023-04-11T11:17:19.985Z,3.60
2023-04-11T11:20:10.300Z,3.60
2023-04-11T11:23:05.920Z,3.40
2023-04-11T11:25:54.906Z,2.90
2023-04-11T11:28:49.035Z,3.20
2023-04-11T11:31:42.202Z,3.40
2023-04-11T11:34:31.535Z,3.20
2023-04-11T11:37:19.146Z,3.60
2023-04-11T11:40:12.840Z,3.10
2023-04-11T11:43:00.138Z,3.00
2023-04-11T11:45:47.895Z,3.10
2023-04-11T11:48:35.095Z,2.80
2023-04-11T11:51:21.536Z,2.90
2023-04-11T11:54:10.678Z,3.00
2023-04-11T11:56:57.464Z,3.00
2023-04-11T11:59:44.476Z,3.10
2023-04-11T12:02:34.574Z,3.00
2023-04-11T12:05:24.950Z,3.10
2023-04-11T12:08:12.613Z,3.10
2023-04-11T12:10:59.634Z,2.90
2023-04-11T12:13:52.989Z,2.80
2023-04-11T12:16:39.793Z,2.50
2023-04-11T12:19:27.636Z,2.60
2023-04-11T12:22:15.884Z,3.10
2023-04-11T12:25:07.315Z,2.60
2023-04-11T12:27:54.342Z,2.70
2023-04-11T12:30:41.845Z,2.30
2023-04-11T12:33:29.164Z,2.80
2023-04-11T12:36:16.266Z,2.70
2023-04-11T12:39:02.895Z,2.40
2023-04-11T12:41:49.800Z,2.90
2023-04-11T12:44:37.028Z,2.60
2023-04-11T12:47:24.389Z,2.80
2023-04-11T12:50:12.076Z,2.60
2023-04-11T12:52:59.457Z,2.50
2023-04-11T12:55:46.413Z,2.30
2023-04-11T12:58:33.338Z,2.50
2023-04-11T13:01:21.434Z,3.20
2023-04-11T13:04:08.638Z,2.50
2023-04-11T13:07:00.981Z,2.60
2023-04-11T13:09:51.233Z,2.60
2023-04-11T13:12:41.831Z,2.60
2023-04-11T13:15:28.964Z,2.60
2023-04-11T13:18:15.896Z,2.40
2023-04-11T13:21:02.888Z,2.70
2023-04-11T13:23:49.809Z,2.90
2023-04-11T13:26:37.213Z,2.60
2023-04-11T13:29:24.265Z,2.60
2023-04-11T13:32:11.249Z,2.30
2023-04-11T13:34:58.100Z,2.60
2023-04-11T13:37:45.173Z,2.50
2023-04-11T13:40:32.202Z,2.80
2023-04-11T13:43:18.906Z,2.80
2023-04-11T13:46:06.486Z,2.90
2023-04-11T13:48:53.314Z,2.50
2023-04-11T13:51:41.481Z,2.60
2023-04-11T13:54:28.615Z,2.80
2023-04-11T13:57:15.515Z,2.80
2023-04-11T14:00:06.847Z,2.60
2023-04-11T14:02:53.997Z,2.20
2023-04-11T14:05:41.288Z,2.30
2023-04-11T14:08:29.267Z,2.60
2023-04-11T14:11:16.652Z,2.30
2023-04-11T14:14:03.662Z,2.60
2023-04-11T14:16:50.803Z,2.40
2023-04-11T14:19:37.903Z,2.40
2023-04-11T14:22:26.532Z,2.60
2023-04-11T14:25:13.920Z,2.50
2023-04-11T14:28:01.504Z,2.50
2023-04-11T14:30:48.168Z,2.20
2023-04-11T14:33:35.448Z,2.10
2023-04-11T14:36:22.197Z,2.20
2023-04-11T14:39:09.144Z,2.40
2023-04-11T14:41:56.587Z,2.10
2023-04-11T14:44:43.341Z,2.30
2023-04-11T14:47:30.768Z,2.30
2023-04-11T14:50:17.753Z,1.90
2023-04-11T14:53:05.878Z,2.30
2023-04-11T14:55:52.886Z,2.50
2023-04-11T14:58:40.103Z,2.40
2023-04-11T15:01:27.363Z,2.70
2023-04-11T15:04:14.813Z,2.70
2023-04-11T15:07:02.290Z,2.90
2023-04-11T15:09:48.981Z,3.00
2023-04-11T15:12:36.207Z,2.70
2023-04-11T15:15:22.870Z,2.20
2023-04-11T15:18:24.475Z,2.70
2023-04-11T15:21:11.392Z,2.20
2023-04-11T15:23:58.878Z,2.30
2023-04-11T15:26:46.664Z,2.20
2023-04-11T15:29:33.980Z,2.50
2023-04-11T15:32:21.354Z,2.40
2023-04-11T15:35:09.148Z,2.20
2023-04-11T15:37:57.072Z,2.50
2023-04-11T15:40:44.132Z,2.30
2023-04-11T15:43:32.342Z,2.80
2023-04-11T15:46:19.494Z,2.20
2023-04-11T15:49:06.365Z,2.20
2023-04-11T15:51:53.381Z,2.10
2023-04-11T15:54:40.085Z,2.30
2023-04-11T15:57:28.559Z,2.60
2023-04-11T16:00:16.594Z,2.00
2023-04-11T16:03:04.906Z,2.20
2023-04-11T16:05:53.170Z,2.10
2023-04-11T16:08:39.982Z,1.90
2023-04-11T16:11:27.094Z,2.00
2023-04-11T16:14:14.426Z,2.10
2023-04-11T16:17:01.335Z,2.10
2023-04-11T16:19:51.848Z,2.30
2023-04-11T16:22:39.768Z,2.00
2023-04-11T16:25:26.801Z,2.00
2023-04-11T16:28:14.358Z,2.00
2023-04-11T16:31:01.223Z,2.00
2023-04-11T16:33:48.283Z,2.40
2023-04-11T16:36:35.679Z,2.00
2023-04-11T16:39:23.730Z,1.90
2023-04-11T16:42:10.937Z,1.80
2023-04-11T16:44:57.953Z,2.00
2023-04-11T16:47:44.989Z,1.90
2023-04-11T16:50:32.397Z,2.10
2023-04-11T16:53:19.506Z,2.00
2023-04-11T16:56:07.029Z,1.70
2023-04-11T16:58:54.150Z,2.40
2023-04-11T17:01:42.114Z,1.50
2023-04-11T17:04:29.721Z,2.10
2023-04-11T17:07:17.775Z,2.00
2023-04-11T17:10:05.806Z,1.80
2023-04-11T17:12:54.252Z,2.00
2023-04-11T17:15:41.168Z,2.00
2023-04-11T17:18:27.975Z,1.90
2023-04-11T17:21:16.837Z,2.00
2023-04-11T17:24:03.865Z,1.70
2023-04-11T17:26:50.573Z,1.90
2023-04-11T17:29:37.875Z,1.70
2023-04-11T17:32:24.805Z,2.00
2023-04-11T17:35:11.471Z,1.80
2023-04-11T17:37:58.631Z,1.90
2023-04-11T17:40:45.501Z,1.70
2023-04-11T17:43:32.963Z,1.70
2023-04-11T17:46:20.599Z,1.90
2023-04-11T17:49:07.922Z,2.10
2023-04-11T17:51:59.198Z,1.80
2023-04-11T17:57:34.910Z,1.60
2023-04-11T18:00:23.344Z,1.80
2023-04-11T18:03:10.506Z,1.70
2023-04-11T18:05:58.429Z,2.00
2023-04-11T18:08:50.389Z,1.70
2023-04-11T18:11:38.377Z,1.70
2023-04-11T18:14:25.303Z,1.80
2023-04-11T18:17:12.419Z,1.70
2023-04-11T18:19:59.219Z,1.80
2023-04-11T18:22:54.970Z,1.50
2023-04-11T18:25:41.556Z,1.40
2023-04-11T18:28:29.488Z,1.70
2023-04-11T18:31:17.156Z,1.60
2023-04-11T18:34:06.658Z,1.60
2023-04-11T18:36:56.280Z,1.60
2023-04-11T18:39:44.333Z,1.70
2023-04-11T18:42:31.548Z,1.80
2023-04-11T18:45:21.020Z,1.40
2023-04-11T18:48:08.276Z,1.60
2023-04-11T18:51:00.081Z,1.90
2023-04-11T18:53:47.481Z,1.60
2023-04-11T18:56:35.568Z,1.50
2023-04-11T18:59:28.838Z,1.60
2023-04-11T19:02:17.445Z,1.70
2023-04-11T19:05:08.199Z,1.50
2023-04-11T19:07:56.182Z,1.60
2023-04-11T19:10:43.474Z,1.50
2023-04-11T19:13:33.063Z,1.40
2023-04-11T19:16:20.223Z,1.40
2023-04-11T19:19:10.895Z,1.40
2023-04-11T19:21:58.328Z,1.30
2023-04-11T19:24:46.683Z,1.50
2023-04-11T19:27:33.573Z,1.50
2023-04-11T19:30:23.158Z,1.40
2023-04-11T19:33:09.984Z,1.50
2023-04-11T19:35:57.851Z,1.50
2023-04-11T19:38:47.816Z,1.40
2023-04-11T19:41:35.692Z,1.30
2023-04-11T19:44:23.557Z,1.30
2023-04-11T19:47:10.472Z,1.30
2023-04-11T19:49:58.770Z,1.50
2023-04-11T19:52:45.854Z,1.40
2023-04-11T19:55:32.543Z,1.50
2023-04-11T19:58:21.050Z,1.40
2023-04-11T20:01:09.875Z,1.50
2023-04-11T20:03:57.460Z,1.30
2023-04-11T20:06:44.599Z,1.70
2023-04-11T20:09:32.443Z,1.50
2023-04-11T20:12:19.366Z,1.40
2023-04-11T20:15:07.605Z,1.40
2023-04-11T20:17:54.440Z,1.50
2023-04-11T20:20:41.838Z,1.50
2023-04-11T20:23:31.236Z,1.50
2023-04-11T20:26:18.432Z,1.40
2023-04-11T20:29:05.247Z,1.50
2023-04-11T20:31:51.941Z,1.50
2023-04-11T20:34:38.904Z,1.30
2023-04-11T20:37:25.536Z,1.30
2023-04-11T20:40:14.238Z,1.40
2023-04-11T20:43:02.275Z,1.40
2023-04-11T20:45:49.108Z,1.20
2023-04-11T20:48:35.984Z,1.50
2023-04-11T20:51:23.241Z,1.40
2023-04-11T20:54:11.245Z,1.50
2023-04-11T20:56:58.054Z,1.80
2023-04-11T20:59:45.071Z,1.60
2023-04-11T21:02:32.577Z,1.60
2023-04-11T21:05:24.986Z,1.80
2023-04-11T21:08:13.574Z,1.50
2023-04-11T21:11:02.137Z,1.50
2023-04-11T21:13:50.082Z,1.50
2023-04-11T21:16:36.652Z,1.60
2023-04-11T21:19:24.923Z,1.80
2023-04-11T21:22:12.465Z,1.30
2023-04-11T21:25:02.371Z,1.70
2023-04-11T21:27:50.093Z,1.50
2023-04-11T21:30:37.299Z,1.40
2023-04-11T21:33:24.014Z,1.30
2023-04-11T21:36:11.382Z,1.30
2023-04-11T21:38:58.276Z,1.50
2023-04-11T21:41:45.777Z,1.50
2023-04-11T21:44:33.407Z,1.30
2023-04-11T21:47:20.421Z,1.30
2023-04-11T21:50:08.570Z,1.40
2023-04-11T21:52:55.497Z,1.30
2023-04-11T21:55:46.885Z,1.40
2023-04-11T21:58:37.195Z,1.40
2023-04-11T22:01:24.346Z,1.50
2023-04-11T22:04:17.944Z,1.50
2023-04-11T22:07:06.228Z,1.50
2023-04-11T22:09:59.819Z,1.20
2023-04-11T22:12:47.009Z,1.40
2023-04-11T22:15:34.034Z,1.40
2023-04-11T22:18:26.375Z,1.30
2023-04-11T22:21:19.694Z,1.40
2023-04-11T22:24:09.500Z,1.20
2023-04-11T22:26:58.419Z,1.30
2023-04-11T22:29:46.523Z,1.30
2023-04-11T22:32:34.109Z,1.40
2023-04-11T22:35:20.824Z,1.30
2023-04-11T22:38:07.769Z,1.50
2023-04-11T22:40:54.417Z,1.40
2023-04-11T22:43:42.213Z,1.20
2023-04-11T22:46:34.261Z,1.10
2023-04-11T22:49:21.475Z,1.10
2023-04-11T22:52:14.113Z,1.30
2023-04-11T22:55:01.427Z,1.30
2023-04-11T22:57:48.462Z,1.30
2023-04-11T23:00:38.605Z,1.40
2023-04-11T23:03:25.664Z,1.20
2023-04-11T23:06:13.741Z,1.40
2023-04-11T23:09:00.827Z,1.40
2023-04-11T23:11:49.030Z,1.30
2023-04-11T23:14:35.986Z,1.30
2023-04-11T23:17:23.942Z,1.50
2023-04-11T23:20:13.829Z,1.30
2023-04-11T23:23:00.812Z,1.30
2023-04-11T23:25:47.804Z,1.30
2023-04-11T23:28:34.864Z,1.60
2023-04-11T23:31:21.794Z,1.40
2023-04-11T23:34:08.710Z,1.30
2023-04-11T23:36:57.751Z,1.40
2023-04-11T23:39:44.751Z,1.20
2023-04-11T23:42:31.867Z,1.30
2023-04-11T23:45:22.620Z,1.50
2023-04-11T23:48:09.898Z,1.60
2023-04-11T23:50:57.217Z,1.60
2023-04-11T23:53:45.645Z,1.40
2023-04-11T23:56:32.788Z,1.50
2023-04-11T23:59:19.904Z,1.20
